地図

経路データ

SID SEASON NUMBER BASIN SUBBASIN NAME ISO_TIME NATURE LAT LON WMO_WIND WMO_PRES WMO_AGENCY TRACK_TYPE DIST2LAND LANDFALL IFLAG USA_AGENCY USA_ATCF_ID USA_LAT USA_LON USA_RECORD USA_STATUS USA_WIND USA_PRES USA_SSHS USA_R34_NE USA_R34_SE USA_R34_SW USA_R34_NW USA_R50_NE USA_R50_SE USA_R50_SW USA_R50_NW USA_R64_NE USA_R64_SE USA_R64_SW USA_R64_NW USA_POCI USA_ROCI USA_RMW USA_EYE TOKYO_LAT TOKYO_LON TOKYO_GRADE TOKYO_WIND TOKYO_PRES TOKYO_R50_DIR TOKYO_R50_LONG TOKYO_R50_SHORT TOKYO_R30_DIR TOKYO_R30_LONG TOKYO_R30_SHORT TOKYO_LAND CMA_LAT CMA_LON CMA_CAT CMA_WIND CMA_PRES HKO_LAT HKO_LON HKO_CAT HKO_WIND HKO_PRES NEWDELHI_LAT NEWDELHI_LON NEWDELHI_GRADE NEWDELHI_WIND NEWDELHI_PRES NEWDELHI_CI NEWDELHI_DP NEWDELHI_POCI REUNION_LAT REUNION_LON REUNION_TYPE REUNION_WIND REUNION_PRES REUNION_TNUM REUNION_CI REUNION_RMW REUNION_R34_NE REUNION_R34_SE REUNION_R34_SW REUNION_R34_NW REUNION_R50_NE REUNION_R50_SE REUNION_R50_SW REUNION_R50_NW REUNION_R64_NE REUNION_R64_SE REUNION_R64_SW REUNION_R64_NW BOM_LAT BOM_LON BOM_TYPE BOM_WIND BOM_PRES BOM_TNUM BOM_CI BOM_RMW BOM_R34_NE BOM_R34_SE BOM_R34_SW BOM_R34_NW BOM_R50_NE BOM_R50_SE BOM_R50_SW BOM_R50_NW BOM_R64_NE BOM_R64_SE BOM_R64_SW BOM_R64_NW BOM_ROCI BOM_POCI BOM_EYE BOM_POS_METHOD BOM_PRES_METHOD NADI_LAT NADI_LON NADI_CAT NADI_WIND NADI_PRES WELLINGTON_LAT WELLINGTON_LON WELLINGTON_WIND WELLINGTON_PRES DS824_LAT DS824_LON DS824_STAGE DS824_WIND DS824_PRES TD9636_LAT TD9636_LON TD9636_STAGE TD9636_WIND TD9636_PRES TD9635_LAT TD9635_LON TD9635_WIND TD9635_PRES TD9635_ROCI NEUMANN_LAT NEUMANN_LON NEUMANN_CLASS NEUMANN_WIND NEUMANN_PRES MLC_LAT MLC_LON MLC_CLASS MLC_WIND MLC_PRES USA_GUST BOM_GUST BOM_GUST_PER REUNION_GUST REUNION_GUST_PER USA_SEAHGT USA_SEARAD_NE USA_SEARAD_SE USA_SEARAD_SW USA_SEARAD_NW STORM_SPEED STORM_DIR
1995198N17252 1995 33 EP MM COSME 1995-07-17 00:00:00 TS 17.0000 -108.100 25 1007 hurdat_epa main 422 414 O_____________ hurdat_epa EP041995 17.0000 -108.100 TD 25 1007 -1 3 315
1995198N17252 1995 33 EP MM COSME 1995-07-17 03:00:00 TS 17.1124 -108.217 main 422 422 P_____________ EP041995 17.1124 -108.217 TD 27 1007 -1 4 305
1995198N17252 1995 33 EP MM COSME 1995-07-17 06:00:00 TS 17.2000 -108.400 30 1007 hurdat_epa main 430 430 O_____________ hurdat_epa EP041995 17.2000 -108.400 TD 30 1007 -1 5 287
1995198N17252 1995 33 EP MM COSME 1995-07-17 09:00:00 TS 17.2501 -108.685 main 447 447 P_____________ EP041995 17.2501 -108.685 TD 30 1006 -1 6 280
1995198N17252 1995 33 EP MM COSME 1995-07-17 12:00:00 TS 17.3000 -109.000 30 1006 hurdat_epa main 473 473 O_____________ hurdat_epa EP041995 17.3000 -109.000 TD 30 1006 -1 6 284
1995198N17252 1995 33 EP MM COSME 1995-07-17 15:00:00 TS 17.3850 -109.272 main 493 493 P_____________ EP041995 17.3850 -109.273 TD 30 1005 -1 5 293
1995198N17252 1995 33 EP MM COSME 1995-07-17 18:00:00 TS 17.5000 -109.500 30 1005 hurdat_epa main 505 505 O_____________ hurdat_epa EP041995 17.5000 -109.500 TD 30 1005 -1 4 307
1995198N17252 1995 33 EP MM COSME 1995-07-17 21:00:00 TS 17.6423 -109.635 main 508 502 P_____________ EP041995 17.6423 -109.635 TD 30 1004 -1 4 317
1995198N17252 1995 33 EP MM COSME 1995-07-18 00:00:00 TS 17.8000 -109.800 30 1004 hurdat_epa main 514 514 O_____________ hurdat_epa EP041995 17.8000 -109.800 TD 30 1004 -1 6 304
1995198N17252 1995 33 EP MM COSME 1995-07-18 03:00:00 TS 17.9501 -110.120 main 532 532 P_____________ EP041995 17.9501 -110.120 TD 32 1003 -1 7 294
1995198N17252 1995 33 EP MM COSME 1995-07-18 06:00:00 TS 18.1000 -110.500 35 1002 hurdat_epa main 539 529 O_____________ hurdat_epa EP041995 18.1000 -110.500 TS 35 1002 0 7 293
1995198N17252 1995 33 EP MM COSME 1995-07-18 09:00:00 TS 18.2424 -110.843 main 532 516 P_____________ EP041995 18.2424 -110.843 TS 37 1001 0 7 294
1995198N17252 1995 33 EP MM COSME 1995-07-18 12:00:00 TS 18.4000 -111.200 40 1000 hurdat_epa main 518 505 O_____________ hurdat_epa EP041995 18.4000 -111.200 TS 40 1000 0 8 296
1995198N17252 1995 33 EP MM COSME 1995-07-18 15:00:00 TS 18.5850 -111.593 main 508 499 P_____________ EP041995 18.5850 -111.593 TS 45 998 0 9 298
1995198N17252 1995 33 EP MM COSME 1995-07-18 18:00:00 TS 18.8000 -112.000 50 997 hurdat_epa main 503 492 O_____________ hurdat_epa EP041995 18.8000 -112.000 TS 50 997 0 9 301
1995198N17252 1995 33 EP MM COSME 1995-07-18 21:00:00 TS 19.0499 -112.400 main 502 490 P_____________ EP041995 19.0499 -112.400 TS 52 996 0 9 303
1995198N17252 1995 33 EP MM COSME 1995-07-19 00:00:00 TS 19.3000 -112.800 55 995 hurdat_epa main 496 493 O_____________ hurdat_epa EP041995 19.3000 -112.800 TS 55 995 0 9 301
1995198N17252 1995 33 EP MM COSME 1995-07-19 03:00:00 TS 19.4999 -113.200 main 504 503 P_____________ EP041995 19.4999 -113.200 TS 55 994 0 9 298
1995198N17252 1995 33 EP MM COSME 1995-07-19 06:00:00 TS 19.7000 -113.600 55 993 hurdat_epa main 516 516 O_____________ hurdat_epa EP041995 19.7000 -113.600 TS 55 993 0 9 300
1995198N17252 1995 33 EP MM COSME 1995-07-19 09:00:00 TS 19.9348 -113.985 main 532 525 P_____________ EP041995 19.9348 -113.985 TS 57 991 0 9 304
1995198N17252 1995 33 EP MM COSME 1995-07-19 12:00:00 TS 20.2000 -114.400 60 990 hurdat_epa main 545 542 O_____________ hurdat_epa EP041995 20.2000 -114.400 TS 60 990 0 10 303
1995198N17252 1995 33 EP MM COSME 1995-07-19 15:00:00 TS 20.4849 -114.878 main 548 545 P_____________ EP041995 20.4849 -114.878 TS 62 988 0 11 303
1995198N17252 1995 33 EP MM COSME 1995-07-19 18:00:00 TS 20.8000 -115.400 65 987 hurdat_epa main 551 547 O_____________ hurdat_epa EP041995 20.8000 -115.400 HU 65 987 1 12 304
1995198N17252 1995 33 EP MM COSME 1995-07-19 21:00:00 TS 21.1801 -115.965 main 558 558 P_____________ EP041995 21.1801 -115.965 HU 65 986 1 12 304
1995198N17252 1995 33 EP MM COSME 1995-07-20 00:00:00 TS 21.5000 -116.500 65 985 hurdat_epa main 573 573 O_____________ hurdat_epa EP041995 21.5000 -116.500 HU 65 985 1 10 298
1995198N17252 1995 33 EP MM COSME 1995-07-20 03:00:00 TS 21.6446 -116.908 main 598 598 P_____________ EP041995 21.6446 -116.908 HU 65 985 1 8 285
1995198N17252 1995 33 EP MM COSME 1995-07-20 06:00:00 TS 21.7000 -117.300 65 985 hurdat_epa main 625 625 O_____________ hurdat_epa EP041995 21.7000 -117.300 HU 65 985 1 8 280
1995198N17252 1995 33 EP MM COSME 1995-07-20 09:00:00 TS 21.7799 -117.777 main 662 662 P_____________ EP041995 21.7799 -117.777 HU 62 986 0 9 276
1995198N17252 1995 33 EP MM COSME 1995-07-20 12:00:00 TS 21.8000 -118.300 60 987 hurdat_epa main 707 707 O_____________ hurdat_epa EP041995 21.8000 -118.300 TS 60 987 0 10 267
1995198N17252 1995 33 EP MM COSME 1995-07-20 15:00:00 TS 21.7223 -118.835 main 757 757 P_____________ EP041995 21.7223 -118.835 TS 55 989 0 10 259
1995198N17252 1995 33 EP MM COSME 1995-07-20 18:00:00 TS 21.6000 -119.400 50 991 hurdat_epa main 804 804 O_____________ hurdat_epa EP041995 21.6000 -119.400 TS 50 991 0 11 258
1995198N17252 1995 33 EP MM COSME 1995-07-20 21:00:00 TS 21.4999 -120.000 main 852 852 P_____________ EP041995 21.4999 -120.000 TS 45 993 0 11 260
1995198N17252 1995 33 EP MM COSME 1995-07-21 00:00:00 TS 21.4000 -120.600 40 996 hurdat_epa main 902 902 O_____________ hurdat_epa EP041995 21.4000 -120.600 TS 40 996 0 11 259
1995198N17252 1995 33 EP MM COSME 1995-07-21 03:00:00 TS 21.2997 -121.157 main 950 950 P_____________ EP041995 21.2997 -121.157 TS 37 999 0 10 259
1995198N17252 1995 33 EP MM COSME 1995-07-21 06:00:00 TS 21.2000 -121.700 35 1002 hurdat_epa main 993 993 O_____________ hurdat_epa EP041995 21.2000 -121.700 TS 35 1002 0 10 259
1995198N17252 1995 33 EP MM COSME 1995-07-21 09:00:00 TS 21.0997 -122.242 main 1036 1036 P_____________ EP041995 21.0997 -122.242 TS 32 1003 -1 10 259
1995198N17252 1995 33 EP MM COSME 1995-07-21 12:00:00 TS 21.0000 -122.800 30 1005 hurdat_epa main 1087 1087 O_____________ hurdat_epa EP041995 21.0000 -122.800 TD 30 1005 -1 11 260
1995198N17252 1995 33 EP MM COSME 1995-07-21 15:00:00 TS 20.9000 -123.407 main 1140 1140 P_____________ EP041995 20.9000 -123.407 TD 27 1006 -1 11 260
1995198N17252 1995 33 EP MM COSME 1995-07-21 18:00:00 TS 20.8000 -124.000 25 1008 hurdat_epa main 1193 1193 O_____________ hurdat_epa EP041995 20.8000 -124.000 TD 25 1008 -1 11 259
1995198N17252 1995 33 EP MM COSME 1995-07-21 21:00:00 TS 20.7001 -124.523 main 1239 1239 P_____________ EP041995 20.7001 -124.523 TD 25 1008 -1 10 258
1995198N17252 1995 33 EP MM COSME 1995-07-22 00:00:00 TS 20.6000 -125.000 25 1009 hurdat_epa main 1286 O_____________ hurdat_epa EP041995 20.6000 -125.000 TD 25 1009 -1 9 257

IBTrACS Databaseについて

本データベースは、米国NOAAが公開する1842年以降の世界の熱帯低気圧のベストトラックデータアーカイブInternational Best Track Archive for Climate Stewardship (IBTrACS)を、ウェブで閲覧しやすい形式に変換したものです。

最終更新日:2021-12-06